Time;durP1;ratioP1;P1;durP2;ratioP2;P2;SDS_P1;SDS_P2;PMS_P1;PMS_P2;Temp;Humidity;BMP_temperature;BMP_pressure;BME280_temperature;BME280_humidity;BME280_pressure;Samples;Min_cycle;Max_cycle;Signal;HPM_P1;HPM_P2
2023/08/23 00:01:16;;;;;;;14.90;11.15;;;;;;;;;;6235061;23;20579;-92
2023/08/23 00:04:22;;;;;;;21.95;12.23;;;;;;;;;;6247949;23;20229;-92
2023/08/23 00:07:28;;;;;;;23.38;12.43;;;;;;;;;;6248085;23;20175;-93
2023/08/23 00:10:34;;;;;;;16.92;11.10;;;;;;;;;;6247795;23;20175;-92
2023/08/23 00:13:40;;;;;;;25.42;12.30;;;;;;;;;;6247276;22;20163;-92
2023/08/23 00:16:47;;;;;;;17.95;11.65;;;;;;;;;;6247432;22;20182;-92
2023/08/23 00:19:53;;;;;;;16.30;11.05;;;;;;;;;;6247778;22;20202;-92
2023/08/23 00:22:59;;;;;;;17.33;11.07;;;;;;;;;;6247646;23;20182;-93
2023/08/23 00:26:04;;;;;;;20.40;11.77;;;;;;;;;;6248198;22;20220;-92
2023/08/23 00:29:10;;;;;;;22.58;12.57;;;;;;;;;;6247127;22;20163;-92
2023/08/23 00:32:17;;;;;;;16.92;11.10;;;;;;;;;;6247391;22;20173;-92
2023/08/23 00:35:22;;;;;;;16.90;11.43;;;;;;;;;;6246915;22;20166;-93
2023/08/23 00:38:28;;;;;;;18.80;12.18;;;;;;;;;;6247248;23;20239;-91
2023/08/23 00:41:34;;;;;;;21.27;11.90;;;;;;;;;;6248516;22;20158;-93
2023/08/23 00:44:41;;;;;;;25.15;12.32;;;;;;;;;;6247174;22;20211;-93
2023/08/23 00:47:50;;;;;;;17.33;11.77;;;;;;;;;;6247839;22;20154;-93
2023/08/23 00:50:56;;;;;;;16.70;11.55;;;;;;;;;;6247557;22;20165;-93
2023/08/23 00:54:03;;;;;;;19.25;11.88;;;;;;;;;;6247213;23;20166;-93
2023/08/23 00:57:09;;;;;;;18.48;12.02;;;;;;;;;;6247907;22;20147;-92
2023/08/23 01:00:16;;;;;;;22.30;12.68;;;;;;;;;;6248658;22;20194;-92
2023/08/23 01:03:23;;;;;;;19.35;12.70;;;;;;;;;;6248539;22;20214;-93
2023/08/23 01:06:33;;;;;;;19.55;12.20;;;;;;;;;;6248212;22;20170;-92
2023/08/23 01:09:43;;;;;;;19.63;12.35;;;;;;;;;;6247989;23;20155;-92
2023/08/23 01:12:52;;;;;;;17.80;11.77;;;;;;;;;;6249105;22;20220;-92
2023/08/23 01:15:59;;;;;;;19.42;12.07;;;;;;;;;;6249528;23;20216;-93
2023/08/23 01:19:11;;;;;;;17.77;11.80;;;;;;;;;;6249538;22;20234;-93
2023/08/23 01:22:20;;;;;;;20.27;12.43;;;;;;;;;;6250144;22;20166;-93
2023/08/23 01:25:27;;;;;;;20.63;12.35;;;;;;;;;;6248563;23;20207;-92
2023/08/23 01:28:32;;;;;;;17.45;11.52;;;;;;;;;;6250411;22;20199;-93
2023/08/23 01:31:40;;;;;;;19.30;11.50;;;;;;;;;;6248640;23;20593;-92
2023/08/23 01:34:50;;;;;;;21.08;11.07;;;;;;;;;;6250098;22;20150;-92
2023/08/23 01:37:57;;;;;;;19.05;12.77;;;;;;;;;;6249831;22;20242;-93
2023/08/23 01:41:05;;;;;;;20.85;12.10;;;;;;;;;;6249735;23;20238;-91
2023/08/23 01:44:11;;;;;;;19.90;12.25;;;;;;;;;;6250853;23;20150;-92
2023/08/23 01:47:20;;;;;;;21.90;12.15;;;;;;;;;;6249847;22;20219;-93
2023/08/23 01:50:26;;;;;;;21.80;13.13;;;;;;;;;;6251060;23;20204;-92
2023/08/23 01:53:31;;;;;;;21.45;12.48;;;;;;;;;;6251009;22;20150;-92
2023/08/23 01:56:39;;;;;;;18.02;12.07;;;;;;;;;;6250565;22;20266;-93
2023/08/23 01:59:45;;;;;;;19.00;12.00;;;;;;;;;;6249933;22;20186;-93
2023/08/23 02:02:52;;;;;;;20.08;12.77;;;;;;;;;;6238684;23;20186;-92
2023/08/23 02:05:57;;;;;;;22.40;12.95;;;;;;;;;;6236354;23;20211;-92
2023/08/23 02:09:02;;;;;;;20.00;11.65;;;;;;;;;;6220127;23;20167;-93
2023/08/23 02:12:14;;;;;;;19.30;12.55;;;;;;;;;;6219254;23;20171;-93
2023/08/23 02:15:19;;;;;;;20.00;12.50;;;;;;;;;;6219041;23;20214;-93
2023/08/23 02:18:26;;;;;;;20.20;13.18;;;;;;;;;;6218323;23;20194;-93
2023/08/23 02:21:32;;;;;;;18.52;12.50;;;;;;;;;;6218534;23;20148;-92
2023/08/23 02:24:38;;;;;;;19.25;11.02;;;;;;;;;;6236686;23;20211;-91
2023/08/23 02:27:44;;;;;;;33.83;13.35;;;;;;;;;;6236505;23;20183;-94
2023/08/23 02:30:50;;;;;;;2.65;2.05;;;;;;;;;;6232710;23;20167;-94
2023/08/23 02:33:55;;;;;;;1.95;1.85;;;;;;;;;;6215202;23;20203;-93
2023/08/23 02:37:00;;;;;;;2.95;2.05;;;;;;;;;;6214915;23;20167;-94
2023/08/23 02:40:06;;;;;;;1.73;1.63;;;;;;;;;;6216772;23;20187;-94
2023/08/23 02:43:13;;;;;;;8.68;3.08;;;;;;;;;;6216261;23;20227;-93
2023/08/23 02:46:18;;;;;;;1.90;1.80;;;;;;;;;;6214837;23;20630;-93
2023/08/23 02:49:23;;;;;;;1.95;1.85;;;;;;;;;;6214586;23;20211;-94
2023/08/23 02:52:29;;;;;;;1.67;1.58;;;;;;;;;;6212798;23;20171;-94
2023/08/23 02:55:36;;;;;;;3.10;2.03;;;;;;;;;;6215288;23;20168;-94
2023/08/23 02:58:43;;;;;;;2.38;2.17;;;;;;;;;;6214207;23;20166;-93
2023/08/23 03:01:50;;;;;;;1.48;1.38;;;;;;;;;;6215575;23;20187;-94
2023/08/23 03:04:56;;;;;;;3.28;2.67;;;;;;;;;;6217530;22;20598;-93
2023/08/23 03:08:03;;;;;;;2.97;2.47;;;;;;;;;;6214745;22;20167;-93
2023/08/23 03:11:08;;;;;;;1.77;1.48;;;;;;;;;;6216726;22;20235;-94
2023/08/23 03:14:15;;;;;;;3.03;2.50;;;;;;;;;;6216781;22;20208;-94
2023/08/23 03:17:20;;;;;;;21.20;2.25;;;;;;;;;;6216999;23;20225;-95
2023/08/23 03:20:25;;;;;;;3.03;1.88;;;;;;;;;;6216322;22;20595;-95
2023/08/23 03:23:31;;;;;;;3.08;2.08;;;;;;;;;;6216245;23;20151;-93
2023/08/23 03:26:37;;;;;;;1.30;1.23;;;;;;;;;;6217786;22;20171;-93
2023/08/23 03:29:48;;;;;;;1.30;1.20;;;;;;;;;;6217211;22;20650;-94
2023/08/23 03:32:54;;;;;;;1.63;1.52;;;;;;;;;;6218312;23;20195;-93
2023/08/23 03:36:02;;;;;;;3.47;1.95;;;;;;;;;;6217314;22;20167;-93
2023/08/23 03:39:09;;;;;;;2.35;2.15;;;;;;;;;;6221575;22;20187;-92
2023/08/23 03:42:14;;;;;;;1.10;1.10;;;;;;;;;;6216721;22;20154;-94
2023/08/23 03:45:22;;;;;;;1.73;1.63;;;;;;;;;;6214935;23;20172;-94
2023/08/23 03:48:27;;;;;;;1.80;1.70;;;;;;;;;;6215744;23;20190;-93
2023/08/23 03:51:33;;;;;;;0.98;0.98;;;;;;;;;;6212059;23;20571;-93
2023/08/23 03:54:39;;;;;;;1.95;1.38;;;;;;;;;;6215857;22;20190;-94
2023/08/23 03:57:45;;;;;;;1.35;1.25;;;;;;;;;;6217598;22;20195;-94
2023/08/23 04:00:53;;;;;;;2.45;2.13;;;;;;;;;;6217719;22;20174;-93
2023/08/23 04:03:58;;;;;;;2.03;1.83;;;;;;;;;;6215974;23;20219;-92
2023/08/23 04:07:04;;;;;;;2.13;1.90;;;;;;;;;;6216413;23;20167;-93
2023/08/23 04:10:10;;;;;;;0.85;0.85;;;;;;;;;;6216575;23;20194;-92
2023/08/23 04:13:16;;;;;;;2.70;2.17;;;;;;;;;;6216108;23;20242;-91
2023/08/23 04:16:24;;;;;;;1.65;1.52;;;;;;;;;;6216181;23;20167;-95
2023/08/23 04:19:30;;;;;;;2.63;1.98;;;;;;;;;;6214101;23;20554;-93
2023/08/23 04:22:37;;;;;;;2.75;1.67;;;;;;;;;;6217314;23;20148;-93
2023/08/23 04:25:43;;;;;;;3.78;1.85;;;;;;;;;;6216234;23;20194;-94
2023/08/23 04:28:49;;;;;;;1.63;1.52;;;;;;;;;;6214517;23;20191;-92
2023/08/23 04:31:56;;;;;;;2.78;2.50;;;;;;;;;;6215316;23;20178;-93
2023/08/23 04:35:07;;;;;;;1.63;1.42;;;;;;;;;;6216312;23;20167;-94
2023/08/23 04:38:14;;;;;;;2.13;1.92;;;;;;;;;;6216609;23;20243;-91
2023/08/23 04:41:20;;;;;;;1.58;1.48;;;;;;;;;;6215718;23;20171;-93
2023/08/23 04:44:26;;;;;;;1.05;0.95;;;;;;;;;;6215682;23;20167;-91
2023/08/23 04:48:14;;;;;;;8.20;2.20;;;;;;;;;;6217957;23;20210;-93
2023/08/23 04:51:21;;;;;;;1.95;1.83;;;;;;;;;;6218498;23;20178;-91
2023/08/23 04:54:30;;;;;;;1.67;1.58;;;;;;;;;;6218270;23;20187;-94
2023/08/23 04:57:36;;;;;;;1.65;1.55;;;;;;;;;;6216638;23;20222;-95
2023/08/23 05:00:41;;;;;;;1.67;1.58;;;;;;;;;;6216547;23;20167;-93
2023/08/23 05:03:46;;;;;;;2.28;1.75;;;;;;;;;;6219129;23;20171;-92
2023/08/23 05:06:54;;;;;;;1.52;1.42;;;;;;;;;;6229802;23;20246;-92
2023/08/23 05:09:59;;;;;;;8.77;3.83;;;;;;;;;;6226726;23;20198;-92
2023/08/23 05:13:06;;;;;;;1.58;1.48;;;;;;;;;;6227364;23;20163;-93
2023/08/23 05:16:14;;;;;;;2.10;1.73;;;;;;;;;;6225748;23;20224;-91
2023/08/23 05:19:22;;;;;;;2.78;2.00;;;;;;;;;;6226656;23;20175;-92
2023/08/23 05:22:29;;;;;;;2.33;1.30;;;;;;;;;;6228079;23;20211;-92
2023/08/23 05:25:34;;;;;;;1.80;1.52;;;;;;;;;;6227624;23;20607;-92
2023/08/23 05:28:39;;;;;;;1.42;1.30;;;;;;;;;;6226356;23;20282;-92
2023/08/23 05:31:45;;;;;;;1.58;1.23;;;;;;;;;;6224878;23;20686;-90
2023/08/23 05:34:49;;;;;;;1.52;1.15;;;;;;;;;;6228482;23;20210;-90
2023/08/23 05:37:57;;;;;;;4.32;1.55;;;;;;;;;;6226176;23;20160;-90
2023/08/23 05:41:03;;;;;;;2.72;1.35;;;;;;;;;;6226594;23;20245;-90
2023/08/23 05:44:09;;;;;;;1.45;1.35;;;;;;;;;;6224559;23;20167;-91
2023/08/23 05:47:15;;;;;;;1.83;1.73;;;;;;;;;;6226077;23;20171;-91
2023/08/23 05:50:19;;;;;;;1.25;1.25;;;;;;;;;;6227785;23;20198;-90
2023/08/23 05:53:26;;;;;;;3.40;2.08;;;;;;;;;;6227311;23;20171;-91
2023/08/23 05:56:31;;;;;;;2.92;1.88;;;;;;;;;;6225295;23;20163;-92
2023/08/23 05:59:36;;;;;;;3.08;1.67;;;;;;;;;;6224574;23;20167;-92
2023/08/23 06:02:41;;;;;;;0.77;0.77;;;;;;;;;;6226596;23;20181;-91
2023/08/23 06:05:46;;;;;;;2.72;1.42;;;;;;;;;;6208713;23;20167;-92
2023/08/23 06:08:53;;;;;;;3.67;1.98;;;;;;;;;;6208668;23;20215;-91
2023/08/23 06:11:58;;;;;;;1.88;1.70;;;;;;;;;;6207209;23;20245;-90
2023/08/23 06:15:04;;;;;;;1.38;1.25;;;;;;;;;;6206537;23;20242;-91
2023/08/23 06:18:09;;;;;;;3.05;2.33;;;;;;;;;;6208143;23;20282;-89
2023/08/23 06:21:14;;;;;;;1.58;1.48;;;;;;;;;;6224747;23;20210;-92
2023/08/23 06:24:20;;;;;;;2.08;1.88;;;;;;;;;;6207224;23;20167;-90
2023/08/23 06:27:26;;;;;;;0.90;0.90;;;;;;;;;;6211137;23;20642;-90
2023/08/23 06:30:31;;;;;;;4.22;2.00;;;;;;;;;;6230167;23;20187;-90
2023/08/23 06:33:37;;;;;;;1.38;1.27;;;;;;;;;;6216713;23;20155;-89
2023/08/23 06:36:43;;;;;;;2.22;2.03;;;;;;;;;;6216037;23;20168;-91
2023/08/23 06:40:05;;;;;;;1.25;1.15;;;;;;;;;;6218691;23;20354;-90
2023/08/23 06:43:19;;;;;;;1.77;1.13;;;;;;;;;;6218869;23;20199;-89
2023/08/23 06:46:25;;;;;;;1.65;1.55;;;;;;;;;;6218757;23;20182;-89
2023/08/23 06:49:30;;;;;;;2.50;1.80;;;;;;;;;;6208671;23;20195;-92
2023/08/23 06:52:35;;;;;;;1.70;0.95;;;;;;;;;;6210436;23;20626;-91
2023/08/23 06:55:41;;;;;;;2.15;1.70;;;;;;;;;;6223708;23;20212;-89
2023/08/23 06:58:48;;;;;;;1.50;1.40;;;;;;;;;;6206917;23;20183;-91
2023/08/23 07:01:55;;;;;;;2.60;1.50;;;;;;;;;;6210442;23;20155;-90
2023/08/23 07:05:04;;;;;;;0.98;0.85;;;;;;;;;;6263457;22;20168;-89
2023/08/23 07:08:09;;;;;;;2.33;1.90;;;;;;;;;;6260985;22;20241;-93
2023/08/23 07:11:16;;;;;;;1.42;1.33;;;;;;;;;;6261741;22;20214;-92
2023/08/23 07:14:22;;;;;;;4.60;1.98;;;;;;;;;;6240435;22;20163;-91
2023/08/23 07:17:28;;;;;;;2.20;1.58;;;;;;;;;;6262619;22;20197;-89
2023/08/23 07:20:33;;;;;;;1.55;1.45;;;;;;;;;;6258155;22;20165;-90
2023/08/23 07:23:38;;;;;;;6.45;2.20;;;;;;;;;;6240617;22;20232;-91
2023/08/23 07:26:44;;;;;;;1.20;1.08;;;;;;;;;;6242112;22;20620;-89
2023/08/23 07:29:51;;;;;;;1.70;1.40;;;;;;;;;;6240569;22;20190;-90
2023/08/23 07:32:57;;;;;;;2.35;1.40;;;;;;;;;;6244418;23;20194;-91
2023/08/23 07:36:05;;;;;;;2.47;1.70;;;;;;;;;;6256080;23;20298;-91
2023/08/23 07:39:10;;;;;;;11.70;8.45;;;;;;;;;;6240488;22;20170;-91
2023/08/23 07:42:15;;;;;;;12.23;8.00;;;;;;;;;;6241435;22;20170;-91
2023/08/23 07:45:22;;;;;;;14.63;8.98;;;;;;;;;;6255565;23;20163;-89
2023/08/23 07:48:28;;;;;;;13.73;8.18;;;;;;;;;;6240912;22;20177;-91
2023/08/23 07:51:33;;;;;;;16.33;8.10;;;;;;;;;;6256369;22;20197;-92
2023/08/23 07:54:38;;;;;;;19.80;7.47;;;;;;;;;;6240859;22;20174;-92
2023/08/23 07:57:44;;;;;;;14.73;7.35;;;;;;;;;;6241169;22;20202;-91
2023/08/23 08:00:51;;;;;;;12.48;6.80;;;;;;;;;;6238015;22;20210;-92
2023/08/23 08:03:56;;;;;;;12.20;6.43;;;;;;;;;;6242799;23;20189;-92
2023/08/23 08:07:01;;;;;;;10.23;6.53;;;;;;;;;;6226976;23;20163;-90
2023/08/23 08:10:07;;;;;;;10.05;5.85;;;;;;;;;;6225896;23;20194;-92
2023/08/23 08:13:11;;;;;;;12.57;6.43;;;;;;;;;;6225708;23;20170;-91
2023/08/23 08:16:18;;;;;;;13.68;6.10;;;;;;;;;;6224670;23;20171;-91
2023/08/23 08:19:23;;;;;;;11.40;6.55;;;;;;;;;;6227218;23;20170;-92
2023/08/23 08:22:28;;;;;;;10.60;5.45;;;;;;;;;;6230074;23;20175;-92
2023/08/23 08:25:34;;;;;;;15.27;7.82;;;;;;;;;;6228496;23;20617;-92
2023/08/23 08:28:42;;;;;;;8.98;5.68;;;;;;;;;;6225383;23;20178;-92
2023/08/23 08:31:50;;;;;;;9.27;5.82;;;;;;;;;;6227299;23;20155;-91
2023/08/23 08:34:56;;;;;;;10.65;6.07;;;;;;;;;;6225384;23;20174;-90
2023/08/23 08:38:01;;;;;;;8.20;5.90;;;;;;;;;;6226627;23;20167;-89
2023/08/23 08:41:09;;;;;;;11.80;6.03;;;;;;;;;;6228214;23;20162;-93
2023/08/23 08:44:14;;;;;;;17.88;8.20;;;;;;;;;;6228834;23;20178;-92
2023/08/23 08:47:21;;;;;;;12.15;6.72;;;;;;;;;;6229642;23;20170;-91
2023/08/23 08:50:32;;;;;;;10.27;6.20;;;;;;;;;;6229373;23;20182;-91
2023/08/23 08:53:39;;;;;;;12.95;6.53;;;;;;;;;;6226380;23;20218;-91
2023/08/23 08:56:46;;;;;;;12.70;6.40;;;;;;;;;;6233117;23;20186;-93
2023/08/23 08:59:52;;;;;;;10.30;6.28;;;;;;;;;;6233988;23;20190;-90
2023/08/23 09:02:59;;;;;;;13.45;5.90;;;;;;;;;;6232987;23;20325;-91
2023/08/23 09:06:06;;;;;;;15.45;7.68;;;;;;;;;;6212451;23;20171;-93
2023/08/23 09:09:12;;;;;;;12.98;5.97;;;;;;;;;;6215485;23;20248;-92
2023/08/23 09:12:18;;;;;;;10.45;6.32;;;;;;;;;;6214751;23;20234;-90
2023/08/23 09:15:24;;;;;;;11.65;5.50;;;;;;;;;;6215459;23;20199;-90
2023/08/23 09:18:34;;;;;;;7.63;5.47;;;;;;;;;;6214317;23;20633;-91
2023/08/23 09:21:44;;;;;;;10.75;5.75;;;;;;;;;;6213195;23;20223;-89
2023/08/23 09:24:49;;;;;;;12.98;5.55;;;;;;;;;;6214219;23;20194;-92
2023/08/23 09:27:55;;;;;;;10.95;4.95;;;;;;;;;;6212418;23;20495;-92
2023/08/23 09:31:00;;;;;;;10.00;5.40;;;;;;;;;;6230687;23;20230;-91
2023/08/23 09:34:12;;;;;;;15.52;5.65;;;;;;;;;;6214183;23;20610;-91
2023/08/23 09:37:19;;;;;;;11.00;5.57;;;;;;;;;;6210687;23;20283;-93
2023/08/23 09:40:25;;;;;;;9.35;5.20;;;;;;;;;;6212692;23;20171;-89
2023/08/23 09:43:33;;;;;;;9.10;5.00;;;;;;;;;;6209473;23;20175;-90
2023/08/23 09:46:40;;;;;;;9.25;4.90;;;;;;;;;;6209422;23;20149;-91
2023/08/23 09:49:46;;;;;;;9.45;4.55;;;;;;;;;;6227562;23;20257;-91
2023/08/23 09:52:53;;;;;;;7.05;4.13;;;;;;;;;;6227779;23;20166;-91
2023/08/23 09:55:59;;;;;;;11.85;4.85;;;;;;;;;;6212472;23;20163;-91
2023/08/23 09:59:04;;;;;;;9.43;5.00;;;;;;;;;;6210912;23;20291;-91
2023/08/23 10:02:10;;;;;;;11.15;4.90;;;;;;;;;;6228780;23;20190;-91
2023/08/23 10:05:18;;;;;;;7.82;4.60;;;;;;;;;;6210071;23;20162;-92
2023/08/23 10:08:24;;;;;;;12.85;4.65;;;;;;;;;;6229930;23;20170;-91
2023/08/23 10:11:30;;;;;;;10.48;5.38;;;;;;;;;;6216196;23;20165;-90
2023/08/23 10:14:37;;;;;;;8.50;4.53;;;;;;;;;;6218738;23;20174;-92
2023/08/23 10:17:43;;;;;;;15.65;5.05;;;;;;;;;;6216696;23;20166;-88
2023/08/23 10:20:53;;;;;;;12.15;4.35;;;;;;;;;;6217003;23;20304;-91
2023/08/23 10:23:58;;;;;;;5.70;4.13;;;;;;;;;;6209685;23;20301;-91
2023/08/23 10:27:08;;;;;;;7.38;4.65;;;;;;;;;;6225791;23;20223;-92
2023/08/23 10:30:17;;;;;;;8.48;4.53;;;;;;;;;;6212989;23;20154;-91
2023/08/23 10:33:30;;;;;;;11.52;4.80;;;;;;;;;;6212306;23;20153;-90
2023/08/23 10:36:38;;;;;;;7.47;4.38;;;;;;;;;;6213584;23;20182;-92
2023/08/23 10:39:48;;;;;;;7.15;3.30;;;;;;;;;;6212210;23;20233;-93
2023/08/23 10:42:54;;;;;;;8.68;3.72;;;;;;;;;;6212080;23;20220;-91
2023/08/23 10:46:03;;;;;;;8.90;3.75;;;;;;;;;;6217167;23;20161;-92
2023/08/23 10:49:09;;;;;;;7.20;3.63;;;;;;;;;;6217950;23;20195;-91
2023/08/23 10:52:29;;;;;;;7.32;3.58;;;;;;;;;;6235441;23;20170;-91
2023/08/23 10:55:37;;;;;;;4.90;3.40;;;;;;;;;;6219374;23;20464;-91
2023/08/23 10:58:46;;;;;;;9.38;3.90;;;;;;;;;;6216542;23;20167;-92
2023/08/23 11:01:52;;;;;;;7.57;3.40;;;;;;;;;;6217199;23;20201;-90
2023/08/23 11:04:58;;;;;;;13.95;4.05;;;;;;;;;;6218660;23;20165;-91
2023/08/23 11:08:04;;;;;;;6.43;3.50;;;;;;;;;;6218872;23;20192;-90
2023/08/23 11:11:11;;;;;;;5.20;3.72;;;;;;;;;;6217090;23;20159;-91
2023/08/23 11:14:16;;;;;;;6.13;3.10;;;;;;;;;;6218198;23;20611;-93
2023/08/23 11:17:22;;;;;;;11.10;2.92;;;;;;;;;;6216207;23;20621;-92
2023/08/23 11:20:28;;;;;;;6.97;3.42;;;;;;;;;;6216779;23;20166;-92
2023/08/23 11:23:38;;;;;;;6.22;3.10;;;;;;;;;;6233892;23;20174;-92
2023/08/23 11:26:46;;;;;;;6.75;3.28;;;;;;;;;;6217488;23;20170;-93
2023/08/23 11:29:52;;;;;;;5.22;3.03;;;;;;;;;;6235014;23;20177;-91
2023/08/23 11:32:57;;;;;;;5.20;3.00;;;;;;;;;;6216760;23;20199;-92
2023/08/23 11:36:12;;;;;;;6.88;3.13;;;;;;;;;;6217994;23;20161;-90
2023/08/23 11:39:21;;;;;;;4.40;3.25;;;;;;;;;;6217882;23;20183;-92
2023/08/23 11:42:31;;;;;;;9.02;3.70;;;;;;;;;;6217279;23;20193;-92
2023/08/23 11:45:38;;;;;;;15.38;4.32;;;;;;;;;;6217184;23;20166;-93
2023/08/23 11:48:43;;;;;;;7.00;3.70;;;;;;;;;;6216442;23;20166;-91
2023/08/23 11:51:51;;;;;;;9.88;3.65;;;;;;;;;;6217429;23;20167;-89
2023/08/23 11:54:59;;;;;;;6.25;3.78;;;;;;;;;;6216461;23;20166;-91
2023/08/23 12:01:25;;;;;;;7.75;3.67;;;;;;;;;;6217065;23;20318;-91
2023/08/23 12:04:42;;;;;;;8.18;3.88;;;;;;;;;;6217933;23;20189;-90
2023/08/23 12:07:56;;;;;;;9.93;3.75;;;;;;;;;;6218268;23;20212;-92
2023/08/23 12:14:24;;;;;;;6.80;3.75;;;;;;;;;;6236036;23;20163;-91
2023/08/23 12:17:30;;;;;;;6.45;3.40;;;;;;;;;;6217950;23;20182;-92
2023/08/23 12:20:35;;;;;;;7.10;3.50;;;;;;;;;;6216985;23;20174;-92
2023/08/23 12:23:42;;;;;;;10.43;3.30;;;;;;;;;;6219717;23;20177;-92
2023/08/23 12:26:56;;;;;;;5.90;3.33;;;;;;;;;;6219439;23;20178;-93
2023/08/23 12:30:09;;;;;;;8.52;3.40;;;;;;;;;;6217964;23;20174;-91
2023/08/23 12:33:26;;;;;;;6.50;3.30;;;;;;;;;;6219388;23;20211;-90
2023/08/23 12:40:35;;;;;;;9.20;3.33;;;;;;;;;;6219868;23;20167;-93
2023/08/23 12:43:51;;;;;;;10.90;3.22;;;;;;;;;;6220151;23;20158;-91
2023/08/23 12:47:14;;;;;;;7.25;3.03;;;;;;;;;;6219739;23;20222;-92
2023/08/23 12:50:41;;;;;;;10.55;3.10;;;;;;;;;;6218382;23;20253;-91
2023/08/23 12:54:19;;;;;;;6.07;2.75;;;;;;;;;;6237002;23;20166;-93
2023/08/23 12:57:33;;;;;;;7.07;3.15;;;;;;;;;;6216662;23;20206;-91
2023/08/23 13:00:50;;;;;;;4.85;3.25;;;;;;;;;;6217661;23;20171;-90
2023/08/23 13:04:00;;;;;;;12.50;3.28;;;;;;;;;;6216979;23;20194;-89
2023/08/23 13:07:07;;;;;;;6.55;3.30;;;;;;;;;;6201539;23;20158;-90
2023/08/23 13:10:12;;;;;;;9.35;3.28;;;;;;;;;;6219235;23;20237;-91
2023/08/23 13:16:37;;;;;;;5.88;3.20;;;;;;;;;;6219690;23;20626;-93
2023/08/23 13:19:46;;;;;;;7.35;2.95;;;;;;;;;;6218872;23;20154;-92
2023/08/23 13:22:52;;;;;;;6.88;3.20;;;;;;;;;;6218536;23;20832;-90
2023/08/23 13:29:22;;;;;;;6.65;3.10;;;;;;;;;;6222374;23;20187;-92
2023/08/23 13:32:29;;;;;;;12.00;3.42;;;;;;;;;;6216713;23;20154;-94
2023/08/23 13:35:36;;;;;;;8.73;3.50;;;;;;;;;;6215176;23;20196;-92
2023/08/23 13:38:46;;;;;;;6.53;3.17;;;;;;;;;;6213657;23;20219;-95
2023/08/23 13:41:51;;;;;;;5.97;2.92;;;;;;;;;;6218960;23;20198;-96
2023/08/23 13:44:56;;;;;;;6.65;3.10;;;;;;;;;;6216259;23;20158;-94
2023/08/23 13:48:05;;;;;;;6.25;3.40;;;;;;;;;;6217301;23;20198;-95
2023/08/23 13:51:14;;;;;;;7.10;3.38;;;;;;;;;;6218189;23;20166;-94
2023/08/23 13:54:25;;;;;;;7.35;3.22;;;;;;;;;;6217307;23;20159;-94
2023/08/23 13:57:32;;;;;;;8.65;2.97;;;;;;;;;;6218008;23;20167;-95
2023/08/23 14:00:38;;;;;;;11.55;3.42;;;;;;;;;;6216484;23;20150;-92
2023/08/23 14:03:43;;;;;;;8.15;2.90;;;;;;;;;;6217625;23;20213;-94
2023/08/23 14:06:50;;;;;;;5.88;3.38;;;;;;;;;;6218976;23;20154;-94
2023/08/23 14:09:56;;;;;;;7.10;2.80;;;;;;;;;;6216577;23;20166;-94
2023/08/23 14:13:02;;;;;;;10.27;3.22;;;;;;;;;;6217146;23;20171;-94
2023/08/23 14:16:08;;;;;;;11.35;3.20;;;;;;;;;;6216729;23;20167;-94
2023/08/23 14:22:43;;;;;;;10.57;3.38;;;;;;;;;;6219951;23;20193;-95
2023/08/23 14:25:49;;;;;;;6.70;3.25;;;;;;;;;;6203105;23;20146;-94
2023/08/23 14:28:55;;;;;;;8.00;3.20;;;;;;;;;;6219573;23;20215;-94
2023/08/23 14:32:00;;;;;;;8.07;3.30;;;;;;;;;;6217288;23;20170;-93
2023/08/23 14:35:06;;;;;;;7.53;3.33;;;;;;;;;;6218549;23;20186;-95
2023/08/23 14:38:18;;;;;;;9.45;3.30;;;;;;;;;;6219436;23;20234;-94
2023/08/23 14:41:25;;;;;;;11.90;3.38;;;;;;;;;;6218433;23;20178;-94
2023/08/23 14:44:31;;;;;;;6.55;3.10;;;;;;;;;;6219894;23;20169;-93
2023/08/23 14:47:37;;;;;;;10.07;4.80;;;;;;;;;;6219663;23;20584;-94
2023/08/23 14:50:43;;;;;;;12.93;3.25;;;;;;;;;;6217863;23;20203;-94
2023/08/23 14:53:52;;;;;;;6.20;2.97;;;;;;;;;;6219226;23;20162;-95
2023/08/23 15:00:17;;;;;;;8.27;3.58;;;;;;;;;;6221465;23;20178;-94
2023/08/23 16:31:32;;;;;;;9.48;2.90;;;;;;;;;;6231031;22;20207;-93
2023/08/23 16:34:40;;;;;;;9.52;4.20;;;;;;;;;;6220413;23;20167;-93
2023/08/23 16:37:45;;;;;;;14.45;4.00;;;;;;;;;;6222094;23;20225;-91
2023/08/23 16:40:54;;;;;;;6.70;3.30;;;;;;;;;;6222641;23;20167;-92
2023/08/23 16:44:01;;;;;;;11.05;3.28;;;;;;;;;;6225339;23;20234;-93
2023/08/23 16:47:12;;;;;;;7.60;4.43;;;;;;;;;;6224909;23;20159;-92
2023/08/23 16:50:19;;;;;;;7.18;2.83;;;;;;;;;;6224157;23;20191;-93
2023/08/23 16:56:46;;;;;;;9.73;3.10;;;;;;;;;;6223319;23;20206;-92
2023/08/23 16:59:52;;;;;;;13.88;4.63;;;;;;;;;;6224437;23;20147;-92
2023/08/23 17:03:04;;;;;;;8.90;3.85;;;;;;;;;;6223579;23;20251;-92
2023/08/23 17:06:09;;;;;;;8.80;3.40;;;;;;;;;;6223145;23;20195;-92
2023/08/23 17:09:18;;;;;;;7.53;3.17;;;;;;;;;;6223814;23;20178;-93
2023/08/23 17:12:25;;;;;;;6.93;3.42;;;;;;;;;;6223173;23;20175;-94
2023/08/23 17:15:32;;;;;;;7.60;3.60;;;;;;;;;;6221998;23;20175;-93
2023/08/23 17:18:53;;;;;;;15.23;3.45;;;;;;;;;;6223365;23;20151;-93
2023/08/23 17:22:10;;;;;;;9.55;3.50;;;;;;;;;;6222750;23;20214;-93
2023/08/23 17:25:16;;;;;;;15.77;3.85;;;;;;;;;;6221864;23;20150;-93
2023/08/23 17:28:22;;;;;;;9.15;3.40;;;;;;;;;;6221229;23;20163;-95
2023/08/23 17:31:28;;;;;;;8.38;3.28;;;;;;;;;;6222367;23;20238;-95
2023/08/23 17:34:42;;;;;;;10.85;3.42;;;;;;;;;;6223281;23;20162;-93
2023/08/23 17:37:53;;;;;;;6.43;3.60;;;;;;;;;;6221813;23;20151;-93
2023/08/23 17:41:08;;;;;;;16.30;4.60;;;;;;;;;;6223286;23;20174;-93
2023/08/23 17:44:14;;;;;;;10.02;4.18;;;;;;;;;;6222387;23;20183;-92
2023/08/23 17:47:23;;;;;;;8.65;4.25;;;;;;;;;;6222319;23;20223;-93
2023/08/23 17:50:30;;;;;;;9.38;4.20;;;;;;;;;;6222679;23;20212;-93
2023/08/23 17:53:37;;;;;;;12.05;4.13;;;;;;;;;;6221436;23;20242;-93
2023/08/23 17:56:45;;;;;;;14.65;4.57;;;;;;;;;;6220520;23;20167;-93
2023/08/23 17:59:51;;;;;;;12.05;4.43;;;;;;;;;;6220888;23;20146;-93
2023/08/23 18:35:14;;;;;;;9.48;4.50;;;;;;;;;;6161245;22;20199;-90
2023/08/23 18:38:20;;;;;;;13.57;4.80;;;;;;;;;;6220562;23;20176;-92
2023/08/23 18:41:26;;;;;;;11.40;4.25;;;;;;;;;;6220221;23;20539;-91
2023/08/23 18:44:31;;;;;;;11.52;4.75;;;;;;;;;;6221264;23;20212;-92
2023/08/23 18:47:37;;;;;;;14.85;7.90;;;;;;;;;;6218405;23;20166;-93
2023/08/23 18:50:43;;;;;;;10.20;4.53;;;;;;;;;;6220384;23;20159;-91
2023/08/23 18:53:53;;;;;;;16.80;5.45;;;;;;;;;;6220108;23;20174;-94
2023/08/23 18:57:07;;;;;;;8.27;5.03;;;;;;;;;;6221012;23;20255;-92
2023/08/23 19:00:16;;;;;;;10.57;4.60;;;;;;;;;;6221362;23;20190;-93
2023/08/23 19:03:22;;;;;;;11.18;5.57;;;;;;;;;;6220330;23;20653;-93
2023/08/23 19:06:30;;;;;;;16.63;6.10;;;;;;;;;;6219200;23;20151;-93
2023/08/23 19:09:36;;;;;;;13.93;5.45;;;;;;;;;;6219625;23;20301;-91
2023/08/23 19:12:46;;;;;;;12.55;5.70;;;;;;;;;;6219149;23;20167;-94
2023/08/23 19:15:53;;;;;;;15.00;5.63;;;;;;;;;;6218783;23;20176;-94
2023/08/23 19:18:59;;;;;;;13.82;9.40;;;;;;;;;;6219394;23;20167;-93
2023/08/23 19:22:22;;;;;;;14.95;6.72;;;;;;;;;;6218935;23;20151;-92
2023/08/23 19:25:40;;;;;;;9.75;5.43;;;;;;;;;;6220732;23;20171;-92
2023/08/23 19:28:48;;;;;;;14.05;6.70;;;;;;;;;;6219861;23;20171;-94
2023/08/23 19:32:03;;;;;;;19.27;8.90;;;;;;;;;;6219250;23;20175;-94
2023/08/23 19:35:12;;;;;;;14.02;6.50;;;;;;;;;;6218866;23;20212;-93
2023/08/23 19:38:24;;;;;;;18.88;6.70;;;;;;;;;;6220113;23;20163;-93
2023/08/23 19:41:35;;;;;;;15.90;6.78;;;;;;;;;;6220796;23;20191;-94
2023/08/23 19:44:41;;;;;;;10.45;5.63;;;;;;;;;;6216169;23;20175;-92
2023/08/23 19:47:48;;;;;;;18.30;7.13;;;;;;;;;;6216781;23;20170;-94
2023/08/23 19:50:56;;;;;;;14.27;7.10;;;;;;;;;;6217558;23;20146;-93
2023/08/23 19:54:03;;;;;;;21.33;9.55;;;;;;;;;;6218726;23;20513;-92
2023/08/23 19:57:11;;;;;;;15.80;8.38;;;;;;;;;;6216861;23;20187;-93
2023/08/23 20:00:17;;;;;;;10.27;7.15;;;;;;;;;;6217822;23;20214;-94
2023/08/23 20:03:23;;;;;;;17.60;7.88;;;;;;;;;;6217789;23;20198;-93
2023/08/23 20:06:28;;;;;;;12.25;6.50;;;;;;;;;;6217813;23;20166;-94
2023/08/23 20:09:35;;;;;;;11.32;5.80;;;;;;;;;;6218167;23;20246;-94
2023/08/23 20:12:41;;;;;;;21.17;6.47;;;;;;;;;;6215286;23;20222;-93
2023/08/23 20:15:46;;;;;;;13.20;6.53;;;;;;;;;;6217810;23;20201;-94
2023/08/23 20:18:52;;;;;;;13.43;6.25;;;;;;;;;;6218620;23;20166;-93
2023/08/23 20:21:57;;;;;;;11.32;5.93;;;;;;;;;;6220913;23;20224;-93
2023/08/23 20:25:05;;;;;;;9.90;6.90;;;;;;;;;;6219543;23;20183;-94
2023/08/23 20:28:14;;;;;;;12.38;6.38;;;;;;;;;;6218433;23;20167;-93
2023/08/23 20:31:20;;;;;;;11.55;6.28;;;;;;;;;;6220739;23;20158;-91
2023/08/23 20:34:26;;;;;;;12.68;6.13;;;;;;;;;;6218296;23;20163;-92
2023/08/23 20:37:32;;;;;;;14.70;6.25;;;;;;;;;;6218386;23;20175;-92
2023/08/23 20:40:40;;;;;;;15.90;6.07;;;;;;;;;;6219585;23;20166;-92
2023/08/23 20:43:49;;;;;;;14.30;6.03;;;;;;;;;;6220372;23;20176;-94
2023/08/23 20:47:08;;;;;;;8.77;5.90;;;;;;;;;;6218480;23;20203;-93
2023/08/23 20:50:13;;;;;;;13.00;6.20;;;;;;;;;;6218077;23;20212;-92
2023/08/23 20:53:18;;;;;;;15.00;6.53;;;;;;;;;;6219342;23;20202;-93
2023/08/23 20:56:26;;;;;;;16.48;7.50;;;;;;;;;;6219360;23;20163;-92
2023/08/23 20:59:32;;;;;;;11.95;6.50;;;;;;;;;;6219957;23;20147;-93
2023/08/23 21:02:37;;;;;;;14.50;7.20;;;;;;;;;;6219403;23;20175;-91